Time;durP1;ratioP1;P1;durP2;ratioP2;P2;SDS_P1;SDS_P2;PMS_P1;PMS_P2;Temp;Humidity;BMP_temperature;BMP_pressure;BME280_temperature;BME280_humidity;BME280_pressure;Samples;Min_cycle;Max_cycle;Signal;HPM_P1;HPM_P2
2023/11/13 00:03:38;;;;;;;21.50;13.30;;;;;;;6.41;100.00;99893.92;224020;1265;138987;-84
2023/11/13 00:09:38;;;;;;;25.80;12.60;;;;;;;6.39;100.00;99890.62;223323;1266;140458;-85
2023/11/13 00:15:14;;;;;;;;;;;;;;;;;;;;;
2023/11/13 00:21:15;;;;;;;;;;;;;;;;;;;;;
2023/11/13 00:33:19;;;;;;;19.10;11.40;;;;;;;6.31;100.00;99901.23;223724;1266;140569;-84
2023/11/13 00:39:13;;;;;;;;;;;;;;;;;;;;;
2023/11/13 00:45:14;;;;;;;21.40;9.70;;;;;;;6.28;100.00;99901.65;223904;1265;139480;-84
2023/11/13 00:51:14;;;;;;;;;;;;;;;;;;;;;
2023/11/13 00:57:16;;;;;;;16.10;9.40;;;;;;;6.25;100.00;99907.11;223800;1265;138918;-85
2023/11/13 01:03:17;;;;;;;19.90;10.60;;;;;;;6.22;100.00;99904.49;223488;1265;142500;-85
2023/11/13 01:09:18;;;;;;;22.70;8.90;;;;;;;6.19;100.00;99901.25;223243;1265;140435;-85
2023/11/13 01:15:11;;;;;;;;;;;;;;;;;;;;;
2023/11/13 01:21:18;;;;;;;16.10;8.60;;;;;;;6.15;100.00;99911.68;223434;1264;140343;-85
2023/11/13 01:27:20;;;;;;;15.30;9.30;;;;;;;6.13;100.00;99914.92;223806;1265;138650;-85
2023/11/13 01:33:09;;;;;;;;;;;;;;;;;;;;;
2023/11/13 01:39:03;;;;;;;;;;;;;;;;;;;;;
2023/11/13 01:44:47;;;;;;;;;;;;;;;;;;;;;
2023/11/13 01:50:39;;;;;;;23.10;10.20;;;;;;;6.04;100.00;99920.60;223383;1266;140089;-85
2023/11/13 01:56:39;;;;;;;18.40;10.10;;;;;;;6.01;100.00;99929.98;223810;1265;139662;-85
2023/11/13 02:02:41;;;;;;;19.20;9.80;;;;;;;5.98;100.00;99927.79;223369;1265;140003;-84
2023/11/13 02:08:28;;;;;;;;;;;;;;;;;;;;;
2023/11/13 02:14:31;;;;;;;18.10;10.10;;;;;;;5.94;100.00;99918.82;223802;1265;139380;-84
2023/11/13 02:20:30;;;;;;;20.50;11.00;;;;;;;5.89;100.00;99917.40;223256;1265;140231;-86
2023/11/13 02:26:29;;;;;;;;;;;;;;;;;;;;;
2023/11/13 02:32:34;;;;;;;19.90;11.20;;;;;;;5.81;100.00;99912.50;223385;1265;141087;-85
2023/11/13 02:38:36;;;;;;;16.30;9.60;;;;;;;5.76;100.00;99911.14;223089;1265;140765;-84
2023/11/13 02:50:25;;;;;;;;;;;;;;;;;;;;;
2023/11/13 02:56:29;;;;;;;14.00;7.80;;;;;;;5.42;100.00;99911.64;223855;1266;138910;-84
2023/11/13 03:02:30;;;;;;;13.80;8.30;;;;;;;5.30;100.00;99911.20;223409;1265;139776;-84
2023/11/13 03:08:32;;;;;;;14.10;8.00;;;;;;;5.25;100.00;99910.69;223350;1266;141023;-84
2023/11/13 03:14:32;;;;;;;11.90;6.80;;;;;;;5.12;100.00;99910.27;223925;1264;138978;-84
2023/11/13 03:32:35;;;;;;;17.20;8.60;;;;;;;4.77;100.00;99902.33;223352;1265;140627;-85
2023/11/13 03:38:21;;;;;;;16.20;7.30;;;;;;;4.62;100.00;99902.70;223262;1264;141315;-84
2023/11/13 03:44:21;;;;;;;;;;;;;;;;;;;;;
2023/11/13 04:02:00;;;;;;;13.40;7.60;;;;;;;4.16;100.00;99902.84;223254;1265;140650;-83
2023/11/13 04:07:30;;;;;;;15.60;8.10;;;;;;;3.98;100.00;99903.66;224018;1265;95900;-84
2023/11/13 04:13:19;;;;;;;;;;;;;;;;;;;;;
2023/11/13 04:19:21;;;;;;;13.80;8.00;;;;;;;3.78;100.00;99910.84;223413;1265;140042;-84
2023/11/13 04:31:05;;;;;;;;;;;;;;;;;;;;;
2023/11/13 04:37:08;;;;;;;17.20;9.00;;;;;;;3.46;100.00;99926.34;223905;1265;139154;-84
2023/11/13 04:43:09;;;;;;;20.80;10.00;;;;;;;3.35;100.00;99925.70;223389;1266;139957;-83
2023/11/13 04:48:59;;;;;;;17.90;9.80;;;;;;;3.26;100.00;99926.88;223406;1265;140803;-84
2023/11/13 04:55:00;;;;;;;20.80;10.70;;;;;;;3.15;100.00;99922.25;223924;1264;140024;-84
2023/11/13 05:00:47;;;;;;;16.20;8.20;;;;;;;3.08;100.00;99920.79;223279;1265;140552;-84
2023/11/13 05:06:46;;;;;;;;;;;;;;;;;;;;;
2023/11/13 05:12:48;;;;;;;24.00;11.10;;;;;;;2.90;100.00;99920.65;223266;1265;140149;-85
2023/11/13 05:18:39;;;;;;;28.20;12.60;;;;;;;2.84;100.00;99923.58;223282;1265;140521;-85
2023/11/13 05:24:32;;;;;;;;;;;;;;;;;;;;;
2023/11/13 05:30:33;;;;;;;28.50;12.90;;;;;;;2.80;100.00;99938.25;223385;1264;140446;-84
2023/11/13 05:36:23;;;;;;;;;;;;;;;;;;;;;
2023/11/13 05:42:23;;;;;;;;;;;;;;;;;;;;;
2023/11/13 05:48:19;;;;;;;51.70;18.70;;;;;;;2.83;100.00;99945.27;223339;1265;140915;-84
2023/11/13 05:54:09;;;;;;;;;;;;;;;;;;;;;
2023/11/13 06:00:11;;;;;;;38.40;15.80;;;;;;;2.87;100.00;99950.94;223161;1265;141237;-84
2023/11/13 06:05:56;;;;;;;;;;;;;;;;;;;;;
2023/11/13 06:11:55;;;;;;;;;;;;;;;;;;;;;
2023/11/13 06:17:41;;;;;;;30.10;13.50;;;;;;;2.87;100.00;99968.88;223841;1265;139079;-84
2023/11/13 06:23:19;;;;;;;48.40;19.70;;;;;;;2.88;100.00;99974.68;223951;1265;139346;-84
2023/11/13 06:29:10;;;;;;;46.50;18.70;;;;;;;2.92;100.00;99975.00;223366;1265;141037;-84
2023/11/13 06:34:35;;;;;;;;;;;;;;;;;;;;;
2023/11/13 06:40:11;;;;;;;;;;;;;;;;;;;;;
2023/11/13 06:46:16;;;;;;;26.50;12.60;;;;;;;3.01;100.00;99986.16;223808;1265;139780;-84
2023/11/13 06:52:03;;;;;;;28.70;13.20;;;;;;;3.03;100.00;99996.50;223264;1265;140755;-84
2023/11/13 06:57:59;;;;;;;;;;;;;;;;;;;;;
2023/11/13 07:04:04;;;;;;;24.70;12.70;;;;;;;3.17;100.00;100008.30;223979;1264;139533;-85
2023/11/13 07:10:02;;;;;;;23.20;11.70;;;;;;;3.26;100.00;100020.88;223325;1265;141529;-85
2023/11/13 07:15:52;;;;;;;;;;;;;;;;;;;;;
2023/11/13 07:21:35;;;;;;;28.10;16.30;;;;;;;3.49;100.00;100028.17;223459;1264;141335;-84
2023/11/13 07:27:26;;;;;;;21.10;11.30;;;;;;;3.63;100.00;100016.36;223965;1265;139651;-84
2023/11/13 07:33:10;;;;;;;;;;;;;;;;;;;;;
2023/11/13 07:39:11;;;;;;;20.40;12.70;;;;;;;3.93;100.00;100004.31;223451;1265;140853;-84
2023/11/13 07:45:12;;;;;;;23.60;11.80;;;;;;;4.10;100.00;100006.15;223964;1265;139893;-85
2023/11/13 07:51:12;;;;;;;20.00;11.00;;;;;;;4.28;100.00;100005.20;223413;1265;141539;-85
2023/11/13 07:57:13;;;;;;;19.00;11.00;;;;;;;4.46;100.00;100004.48;223961;1265;140347;-85
2023/11/13 08:03:16;;;;;;;21.30;11.10;;;;;;;4.66;100.00;100008.94;223574;1267;140118;-85
2023/11/13 08:08:58;;;;;;;16.70;10.00;;;;;;;4.87;100.00;100009.00;223360;1265;141630;-85
2023/11/13 08:14:59;;;;;;;18.70;10.90;;;;;;;5.16;100.00;100005.14;223920;1265;139203;-86
2023/11/13 08:20:42;;;;;;;16.20;10.20;;;;;;;5.52;100.00;100005.27;223416;1265;141085;-86
2023/11/13 08:26:42;;;;;;;21.90;10.50;;;;;;;5.91;100.00;99996.00;224019;1265;139508;-86
2023/11/13 08:32:34;;;;;;;16.10;8.60;;;;;;;6.36;100.00;99999.80;223491;1265;140185;-85
2023/11/13 08:38:35;;;;;;;14.00;7.50;;;;;;;6.65;100.00;99997.50;223478;1264;141549;-83
2023/11/13 08:44:18;;;;;;;15.60;8.10;;;;;;;6.78;100.00;100008.92;223979;1264;139793;-83
2023/11/13 08:50:09;;;;;;;;;;;;;;;;;;;;;
2023/11/13 08:56:08;;;;;;;19.00;8.90;;;;;;;7.22;100.00;100011.07;223987;1268;111365;-83
2023/11/13 09:02:11;;;;;;;19.00;8.90;;;;;;;7.69;100.00;100006.08;223590;1264;141284;-82
2023/11/13 09:14:04;;;;;;;18.30;8.50;;;;;;;8.22;100.00;100023.73;224027;1265;110981;-84
2023/11/13 09:20:07;;;;;;;17.50;8.90;;;;;;;8.46;100.00;100017.80;223436;1265;140932;-84
2023/11/13 09:26:11;;;;;;;15.50;8.60;;;;;;;8.79;100.00;100023.52;224090;1265;111590;-83
2023/11/13 09:32:24;;;;;;;14.80;8.40;;;;;;;9.05;100.00;100017.23;223432;1266;140305;-84
2023/11/13 09:37:57;;;;;;;20.00;10.00;;;;;;;9.28;100.00;100011.19;219844;1266;139495;-85
2023/11/13 09:43:51;;;;;;;15.60;8.20;;;;;;;9.43;100.00;100006.46;224004;1268;139019;-84
2023/11/13 09:49:37;;;;;;;19.40;8.80;;;;;;;9.58;100.00;100003.60;223464;1268;140202;-84
2023/11/13 09:55:41;;;;;;;15.80;7.80;;;;;;;9.69;100.00;100003.14;223992;1268;139106;-82
2023/11/13 10:07:14;;;;;;;17.80;8.60;;;;;;;9.72;100.00;99996.19;224129;1265;138659;-85
2023/11/13 10:13:07;;;;;;;;;;;;;;;;;;;;;
2023/11/13 10:19:00;;;;;;;14.90;6.80;;;;;;;9.54;100.00;99983.89;223407;1266;140179;-83
2023/11/13 10:25:17;;;;;;;15.50;7.70;;;;;;;9.52;100.00;99992.25;223828;1268;139040;-83
2023/11/13 10:31:26;;;;;;;;;;;;;;;;;;;;;
2023/11/13 10:37:25;;;;;;;;;;;;;;;;;;;;;
2023/11/13 10:43:09;;;;;;;;;;;;;;;;;;;;;
2023/11/13 10:48:56;;;;;;;10.70;6.10;;;;;;;9.35;100.00;99960.80;223488;1268;140350;-83
2023/11/13 10:54:44;;;;;;;13.70;5.50;;;;;;;9.29;99.18;99953.06;223932;1264;138978;-84
2023/11/13 11:00:36;;;;;;;10.40;4.50;;;;;;;9.24;98.01;99944.86;223487;1266;140722;-82
2023/11/13 11:06:06;;;;;;;;;;;;;;;;;;;;;
2023/11/13 11:11:38;;;;;;;;;;;;;;;;;;;;;
2023/11/13 11:17:43;;;;;;;9.10;4.60;;;;;;;9.12;94.86;99945.30;223953;1266;138556;-82
2023/11/13 11:23:31;;;;;;;14.30;5.60;;;;;;;9.06;95.86;99944.39;223877;1266;138494;-82
2023/11/13 11:29:42;;;;;;;12.80;5.40;;;;;;;9.05;96.49;99935.67;223312;1267;140568;-81
2023/11/13 11:35:41;;;;;;;;;;;;;;;;;;;;;
2023/11/13 11:41:29;;;;;;;13.40;5.50;;;;;;;9.13;96.01;99913.94;223344;1266;140302;-83
2023/11/13 11:47:36;;;;;;;12.40;5.50;;;;;;;9.19;95.33;99915.80;223672;1266;138712;-81
2023/11/13 11:53:37;;;;;;;11.30;5.90;;;;;;;9.24;92.76;99916.60;224014;1265;138990;-82
2023/11/13 11:59:27;;;;;;;10.80;5.10;;;;;;;9.26;91.44;99912.08;222826;1266;142188;-82
2023/11/13 12:05:29;;;;;;;12.10;4.40;;;;;;;9.26;89.47;99910.91;224023;1268;138980;-82
2023/11/13 12:11:21;;;;;;;;;;;;;;;;;;;;;
2023/11/13 12:16:59;;;;;;;32.50;7.30;;;;;;;9.22;89.03;99899.66;223795;1266;138471;-83
2023/11/13 12:23:00;;;;;;;20.90;7.00;;;;;;;9.20;90.67;99899.32;223363;1267;141861;-84
2023/11/13 12:28:40;;;;;;;75.90;10.40;;;;;;;9.20;92.31;99893.83;223460;1266;141719;-83
2023/11/13 12:34:33;;;;;;;;;;;;;;;;;;;;;
2023/11/13 12:46:26;;;;;;;12.30;6.50;;;;;;;9.15;90.00;99876.46;223735;1265;138396;-83
2023/11/13 12:52:09;;;;;;;;;;;;;;;;;;;;;
2023/11/13 12:58:14;;;;;;;11.40;6.30;;;;;;;9.08;90.39;99865.75;223466;1266;164292;-82
2023/11/13 13:03:46;;;;;;;;;;;;;;;;;;;;;
2023/11/13 13:09:44;;;;;;;;;;;;;;;;;;;;;
2023/11/13 13:21:26;;;;;;;13.70;7.20;;;;;;;8.88;90.87;99827.09;223207;1268;140043;-84
2023/11/13 13:26:48;;;;;;;12.60;6.30;;;;;;;8.82;91.37;99825.67;223694;1268;138649;-83
2023/11/13 13:32:34;;;;;;;;;;;;;;;;;;;;;
2023/11/13 13:38:37;;;;;;;14.50;6.60;;;;;;;8.73;91.68;99809.95;223572;1266;140575;-82
2023/11/13 13:44:26;;;;;;;15.40;7.40;;;;;;;8.69;92.88;99803.24;224090;1267;95815;-81
2023/11/13 13:50:20;;;;;;;;;;;;;;;;;;;;;
2023/11/13 13:56:09;;;;;;;;;;;;;;;;;;;;;
2023/11/13 14:01:55;;;;;;;13.80;6.50;;;;;;;8.60;93.37;99798.15;223368;1267;140395;-82
2023/11/13 14:07:47;;;;;;;14.30;7.00;;;;;;;8.57;93.43;99792.17;223951;1268;138254;-84
2023/11/13 14:13:37;;;;;;;;;;;;;;;;;;;;;
2023/11/13 14:19:19;;;;;;;18.20;7.80;;;;;;;8.48;94.59;99759.88;223437;1265;141109;-83
2023/11/13 14:25:09;;;;;;;14.10;7.00;;;;;;;8.44;94.77;99761.27;223954;1266;138844;-83
2023/11/13 14:30:59;;;;;;;;;;;;;;;;;;;;;
2023/11/13 14:37:04;;;;;;;18.40;6.90;;;;;;;8.30;95.48;99753.92;224016;1265;138762;-83
2023/11/13 14:43:05;;;;;;;13.90;7.40;;;;;;;8.22;96.25;99740.46;223375;1265;140398;-81
2023/11/13 14:48:55;;;;;;;;;;;;;;;;;;;;;
2023/11/13 14:54:38;;;;;;;14.80;7.80;;;;;;;8.02;96.72;99729.90;223806;1267;138976;-82
2023/11/13 15:00:20;;;;;;;16.70;8.00;;;;;;;7.91;96.23;99729.77;223240;1267;140483;-82
2023/11/13 15:06:21;;;;;;;14.20;6.80;;;;;;;7.77;96.36;99708.81;223988;1268;138916;-82
2023/11/13 15:12:15;;;;;;;;;;;;;;;;;;;;;
2023/11/13 15:18:17;;;;;;;15.00;8.50;;;;;;;7.53;96.64;99693.84;223349;1267;141060;-82
2023/11/13 15:24:07;;;;;;;;;;;;;;;;;;;;;
2023/11/13 15:30:11;;;;;;;22.00;8.40;;;;;;;7.21;97.50;99680.16;223322;1266;140992;-81
2023/11/13 15:35:41;;;;;;;;;;;;;;;;;;;;;
2023/11/13 15:41:25;;;;;;;;;;;;;;;;;;;;;
2023/11/13 15:47:49;;;;;;;45.30;15.20;;;;;;;6.74;98.70;99645.72;223910;1267;138605;-81
2023/11/13 15:53:14;;;;;;;39.00;15.20;;;;;;;6.52;98.84;99633.61;223434;1267;363132;-81
2023/11/13 15:59:15;;;;;;;49.00;16.30;;;;;;;6.34;99.69;99635.29;223337;1266;140598;-81
2023/11/13 16:05:15;;;;;;;;;;;;;;;;;;;;;
2023/11/13 16:11:18;;;;;;;48.60;21.00;;;;;;;6.07;100.00;99633.61;223380;1267;141176;-82
2023/11/13 16:17:02;;;;;;;33.90;15.50;;;;;;;5.90;100.00;99620.94;223942;1266;139613;-82
2023/11/13 16:22:37;;;;;;;22.30;11.60;;;;;;;5.77;100.00;99614.43;223457;1265;140505;-82
2023/11/13 16:28:38;;;;;;;18.50;8.80;;;;;;;5.71;100.00;99603.65;223414;1265;141260;-82
2023/11/13 16:40:02;;;;;;;19.60;8.60;;;;;;;5.64;100.00;99602.27;223244;1265;142107;-82
2023/11/13 16:45:56;;;;;;;17.70;7.60;;;;;;;5.63;100.00;99592.43;223975;1265;139372;-82
2023/11/13 16:51:48;;;;;;;16.30;7.50;;;;;;;5.63;99.97;99578.31;223284;1265;140463;-81
2023/11/13 16:57:49;;;;;;;17.30;8.80;;;;;;;5.62;99.92;99564.50;223810;1265;139374;-81
2023/11/13 17:03:43;;;;;;;20.90;10.10;;;;;;;5.62;99.68;99548.36;223652;1265;365968;-83
2023/11/13 17:09:44;;;;;;;17.60;7.80;;;;;;;5.66;98.73;99520.11;223336;1265;141043;-83
2023/11/13 17:15:45;;;;;;;19.30;7.70;;;;;;;5.71;98.21;99504.84;224026;1265;138445;-82
2023/11/13 17:21:31;;;;;;;;;;;;;;;;;;;;;
2023/11/13 17:27:26;;;;;;;14.90;7.30;;;;;;;5.84;96.67;99466.05;223872;1265;139005;-80
2023/11/13 17:33:20;;;;;;;;;;;;;;;;;;;;;
2023/11/13 17:39:04;;;;;;;15.40;6.60;;;;;;;5.95;96.04;99445.93;223467;1265;140830;-81
2023/11/13 17:45:04;;;;;;;14.20;6.90;;;;;;;6.00;95.75;99441.24;223998;1265;105125;-81
2023/11/13 17:50:31;;;;;;;15.30;6.30;;;;;;;6.05;95.69;99447.55;223390;1265;139983;-81
2023/11/13 17:56:33;;;;;;;12.40;6.90;;;;;;;6.10;95.63;99452.84;223853;1267;138212;-81
2023/11/13 18:02:34;;;;;;;17.60;9.70;;;;;;;6.16;95.18;99466.18;223399;1265;140732;-82
2023/11/13 18:08:26;;;;;;;19.50;8.00;;;;;;;6.19;95.02;99447.19;223465;1265;140633;-81
2023/11/13 18:14:28;;;;;;;15.90;8.40;;;;;;;6.22;94.62;99410.92;223903;1266;138317;-81
2023/11/13 18:20:19;;;;;;;17.40;8.20;;;;;;;6.24;94.39;99369.81;223349;1265;140793;-81
2023/11/13 18:26:13;;;;;;;20.30;8.30;;;;;;;6.25;94.86;99352.19;223924;1265;138278;-81
2023/11/13 18:32:14;;;;;;;16.00;7.80;;;;;;;6.26;94.72;99337.90;223394;1265;140863;-81
2023/11/13 18:38:15;;;;;;;15.70;6.80;;;;;;;6.29;94.98;99339.90;223252;1265;140560;-81
2023/11/13 18:44:08;;;;;;;;;;;;;;;;;;;;;
2023/11/13 18:49:53;;;;;;;17.20;7.50;;;;;;;6.35;94.85;99332.15;223174;1265;140794;-81
2023/11/13 18:55:55;;;;;;;13.90;7.40;;;;;;;6.39;94.92;99332.27;223823;1265;138738;-81
2023/11/13 19:01:38;;;;;;;17.20;8.90;;;;;;;6.42;94.83;99287.33;223420;1265;140701;-81
2023/11/13 19:07:39;;;;;;;14.10;7.70;;;;;;;6.44;94.96;99250.89;223942;1265;139539;-79
2023/11/13 19:13:24;;;;;;;15.80;7.10;;;;;;;6.44;94.66;99214.89;223946;1265;138781;-80
2023/11/13 19:24:49;;;;;;;;;;;;;;;;;;;;;
2023/11/13 19:30:51;;;;;;;30.10;13.20;;;;;;;6.49;94.35;99187.91;223341;1265;141005;-81
2023/11/13 19:36:51;;;;;;;;;;;;;;;;;;;;;
2023/11/13 19:42:53;;;;;;;15.20;7.40;;;;;;;6.50;94.70;99161.29;223338;1265;140680;-80
2023/11/13 19:49:04;;;;;;;;;;;;;;;;;;;;;
2023/11/13 19:55:20;;;;;;;17.30;8.00;;;;;;;6.52;95.24;99118.44;223782;1264;138826;-81
2023/11/13 20:00:49;;;;;;;17.30;7.20;;;;;;;6.48;95.95;99099.12;223254;1265;140673;-81
2023/11/13 20:06:28;;;;;;;;;;;;;;;;;;;;;
2023/11/13 20:12:30;;;;;;;18.40;9.00;;;;;;;6.40;95.89;99071.98;223244;1265;140695;-81
2023/11/13 20:18:31;;;;;;;17.80;8.00;;;;;;;6.36;96.14;99070.46;223318;1264;141590;-81
2023/11/13 20:24:32;;;;;;;19.50;8.80;;;;;;;6.33;96.47;99054.15;223871;1265;139101;-81
2023/11/13 20:30:23;;;;;;;23.10;9.20;;;;;;;6.31;97.59;99029.16;223351;1264;140813;-82
2023/11/13 20:36:25;;;;;;;25.10;10.70;;;;;;;6.24;99.13;99006.24;223718;1265;138611;-84
2023/11/13 20:42:21;;;;;;;22.70;10.60;;;;;;;6.12;100.00;98996.90;223398;1265;140784;-85
2023/11/13 20:48:12;;;;;;;18.90;9.90;;;;;;;6.03;100.00;99004.58;223337;1265;141235;-82
2023/11/13 20:54:14;;;;;;;19.10;9.00;;;;;;;5.99;100.00;99055.48;223959;1265;138647;-83
2023/11/13 21:00:15;;;;;;;21.10;9.50;;;;;;;5.98;100.00;99089.20;223212;1265;140368;-85
2023/11/13 21:06:14;;;;;;;;;;;;;;;;;;;;;
2023/11/13 21:12:09;;;;;;;120.90;37.60;;;;;;;5.79;100.00;98984.02;223122;1265;141302;-87
2023/11/13 21:18:09;;;;;;;383.60;97.90;;;;;;;5.73;100.00;98976.19;223267;1265;141261;-88
2023/11/13 21:24:10;;;;;;;127.10;39.00;;;;;;;5.63;100.00;98948.81;223801;1265;139136;-88
2023/11/13 21:30:13;;;;;;;499.20;123.30;;;;;;;5.52;100.00;98929.41;223303;1265;141089;-86
2023/11/13 21:36:12;;;;;;;260.20;66.00;;;;;;;5.42;100.00;98913.67;220072;1264;5370562;-87
2023/11/13 21:42:10;;;;;;;81.50;24.50;;;;;;;5.36;100.00;98926.48;223456;1265;141039;-90
2023/11/13 21:53:59;;;;;;;;;;;;;;;;;;;;;
2023/11/13 22:00:01;;;;;;;41.70;16.30;;;;;;;5.24;100.00;98861.10;223493;1265;141382;-92
2023/11/13 22:05:55;;;;;;;35.10;16.50;;;;;;;5.07;100.00;98742.96;224031;1265;139417;-92
2023/11/13 22:11:56;;;;;;;27.60;12.30;;;;;;;5.01;100.00;98827.50;223397;1265;140869;-92
2023/11/13 22:17:56;;;;;;;26.60;12.70;;;;;;;5.04;100.00;98843.73;223948;1265;138952;-92
2023/11/13 22:23:54;;;;;;;23.90;11.70;;;;;;;5.03;100.00;98823.63;223985;1265;138812;-94
2023/11/13 22:29:55;;;;;;;21.20;11.80;;;;;;;5.04;100.00;98809.92;223694;1265;141097;-91
2023/11/13 22:35:55;;;;;;;28.20;13.60;;;;;;;5.04;100.00;98770.52;223979;1265;138837;-90
2023/11/13 22:41:57;;;;;;;25.20;13.10;;;;;;;5.05;100.00;98788.90;223418;1265;141189;-91
2023/11/13 22:47:57;;;;;;;24.80;12.80;;;;;;;5.04;100.00;98775.34;224046;1265;137674;-91
2023/11/13 22:53:51;;;;;;;;;;;;;;;;;;;;;
2023/11/13 22:59:53;;;;;;;26.10;13.00;;;;;;;5.12;100.00;98790.20;223496;1265;141274;-90
2023/11/13 23:05:55;;;;;;;22.60;13.50;;;;;;;5.15;100.00;98778.13;223991;1264;138867;-90
2023/11/13 23:11:48;;;;;;;21.70;12.60;;;;;;;5.18;100.00;98776.60;223613;1265;140346;-90
2023/11/13 23:17:51;;;;;;;24.30;13.70;;;;;;;5.23;100.00;98774.37;224144;1264;139708;-91
2023/11/13 23:23:52;;;;;;;24.90;13.20;;;;;;;5.29;100.00;98760.45;224016;1265;390031;-92
2023/11/13 23:29:53;;;;;;;27.00;13.60;;;;;;;5.33;100.00;98749.80;223453;1265;141038;-91
2023/11/13 23:35:54;;;;;;;21.50;13.40;;;;;;;5.37;100.00;98743.27;224138;1265;138987;-90
2023/11/13 23:41:46;;;;;;;25.60;13.80;;;;;;;5.43;100.00;98748.52;223776;1266;139610;-89
2023/11/13 23:47:50;;;;;;;27.80;16.00;;;;;;;5.49;100.00;98739.04;224306;1265;139069;-93
2023/11/13 23:53:52;;;;;;;24.90;15.00;;;;;;;5.54;100.00;98738.97;224296;1265;138266;-92
2023/11/13 23:59:45;;;;;;;27.50;14.10;;;;;;;5.58;100.00;98717.95;223561;1265;140546;-90
